EmailTwitter


Surface observations / United Kingdom / EGLL (03772)

Regions: Quebec | Canada | USA | Europe | France | UK | Elsewhere
Station
Display
Info & Location for EGLL (03772) | Help decoding METAR

Weather Conditions observed on 2019/04/24 at 01:50 UTC at LONDON/HEATHROW, UK (EGLL)

Temperature: 12.0 Celsius.

Dewpoint: 7.0 Celsius.

Relative Humidity: 71%

Winds: East-southeast at 6 km/h or 3 knots.

Mean Sea level Pressure: 99.30 kilopascals.

Horizontal visibility: 5.59 statute miles or 8.95 kilometers.

Coded METAR:

EGLL 240150Z AUTO 11003KT 9000 NCD 12/07 Q0993 NOSIG=